createdAt,value
2018-04-13T00:00:33.080Z,142.30
2018-04-13T00:01:08.395Z,145.10
2018-04-13T00:01:43.761Z,145.90
2018-04-13T00:02:19.009Z,145.00
2018-04-13T00:02:54.423Z,148.30
2018-04-13T00:03:29.702Z,143.00
2018-04-13T00:04:05.034Z,143.40
2018-04-13T00:04:42.799Z,151.50
2018-04-13T00:05:18.028Z,151.70
2018-04-13T00:05:53.427Z,144.80
2018-04-13T00:06:28.645Z,148.40
2018-04-13T00:07:03.997Z,148.10
2018-04-13T00:07:39.183Z,150.30
2018-04-13T00:08:14.591Z,145.80
2018-04-13T00:08:52.005Z,149.60
2018-04-13T00:09:27.321Z,153.60
2018-04-13T00:10:02.400Z,160.80
2018-04-13T00:10:37.721Z,154.30
2018-04-13T00:11:13.122Z,141.90
2018-04-13T00:11:48.555Z,142.30
2018-04-13T00:12:24.003Z,151.40
2018-04-13T00:12:59.469Z,144.60
2018-04-13T00:13:34.687Z,138.40
2018-04-13T00:14:10.200Z,144.20
2018-04-13T00:14:45.605Z,146.00
2018-04-13T00:15:20.818Z,146.90
2018-04-13T00:15:56.418Z,149.10
2018-04-13T00:16:31.850Z,146.50
2018-04-13T00:17:07.279Z,137.50
2018-04-13T00:17:42.480Z,140.50
2018-04-13T00:18:17.993Z,142.30
2018-04-13T00:18:53.192Z,144.10
2018-04-13T00:19:28.706Z,152.60
2018-04-13T00:20:03.961Z,148.80
2018-04-13T00:20:40.963Z,149.50
2018-04-13T00:21:16.397Z,156.70
2018-04-13T00:21:51.829Z,155.00
2018-04-13T00:22:27.384Z,143.10
2018-04-13T00:23:02.794Z,159.10
2018-04-13T00:23:37.927Z,163.70
2018-04-13T00:24:13.450Z,158.10
2018-04-13T00:24:50.044Z,164.60
2018-04-13T00:25:25.183Z,180.10
2018-04-13T00:26:00.371Z,170.20
2018-04-13T00:26:35.573Z,164.10
2018-04-13T00:27:10.905Z,171.90
2018-04-13T00:27:46.218Z,171.70
2018-04-13T00:28:21.434Z,164.30
2018-04-13T00:28:56.626Z,161.00
2018-04-13T00:29:32.160Z,169.30
2018-04-13T00:30:07.774Z,172.80
2018-04-13T00:30:44.373Z,179.30
2018-04-13T00:31:19.612Z,176.70
2018-04-13T00:31:55.039Z,173.60
2018-04-13T00:32:30.599Z,171.40
2018-04-13T00:33:05.973Z,173.50
2018-04-13T00:33:41.344Z,162.10
2018-04-13T00:34:17.055Z,163.80
2018-04-13T00:34:52.779Z,160.30
2018-04-13T00:35:28.232Z,156.00
2018-04-13T00:36:03.418Z,141.80
2018-04-13T00:36:38.859Z,131.70
2018-04-13T00:37:14.206Z,136.30
2018-04-13T00:37:50.939Z,138.90
2018-04-13T00:38:26.292Z,140.00
2018-04-13T00:39:01.576Z,152.40
2018-04-13T00:39:36.996Z,149.90
2018-04-13T00:40:12.229Z,141.30
2018-04-13T00:40:47.909Z,154.70
2018-04-13T00:41:23.575Z,151.80
2018-04-13T00:41:58.995Z,144.90
2018-04-13T00:42:34.660Z,146.50
2018-04-13T00:43:09.782Z,139.40
2018-04-13T00:43:45.361Z,127.20
2018-04-13T00:44:20.577Z,126.30
2018-04-13T00:44:55.864Z,135.40
2018-04-13T00:45:31.092Z,146.40
2018-04-13T00:46:06.638Z,144.00
2018-04-13T00:46:41.930Z,141.70
2018-04-13T00:47:17.416Z,149.10
2018-04-13T00:47:52.836Z,145.90
2018-04-13T00:48:28.083Z,152.50
2018-04-13T00:49:03.307Z,148.00
2018-04-13T00:49:38.823Z,142.80
2018-04-13T00:50:14.464Z,136.20
2018-04-13T00:50:49.861Z,144.50
2018-04-13T00:51:25.285Z,149.10
2018-04-13T00:52:00.726Z,146.70
2018-04-13T00:52:36.157Z,148.00
2018-04-13T00:53:11.229Z,150.90
2018-04-13T00:53:46.440Z,143.30
2018-04-13T00:54:21.936Z,145.50
2018-04-13T00:54:57.570Z,153.50
2018-04-13T00:55:32.819Z,145.30
2018-04-13T00:56:08.106Z,147.50
2018-04-13T00:56:43.644Z,151.00
2018-04-13T00:57:19.145Z,149.00
2018-04-13T00:57:54.588Z,144.00
2018-04-13T00:58:30.100Z,154.70
2018-04-13T00:59:05.710Z,148.60
2018-04-13T00:59:40.936Z,145.30
2018-04-13T01:00:16.138Z,156.70
2018-04-13T01:00:51.954Z,158.80
2018-04-13T01:01:27.376Z,156.20
2018-04-13T01:02:02.785Z,156.60
2018-04-13T01:02:38.647Z,157.50
2018-04-13T01:03:14.147Z,153.50
2018-04-13T01:03:49.601Z,146.10
2018-04-13T01:04:25.022Z,150.00
2018-04-13T01:05:00.202Z,148.90
2018-04-13T01:05:35.541Z,151.90
2018-04-13T01:06:10.649Z,148.50
2018-04-13T01:06:46.106Z,148.00
2018-04-13T01:07:21.625Z,144.90
2018-04-13T01:07:56.942Z,142.20
2018-04-13T01:08:32.148Z,141.80
2018-04-13T01:09:07.427Z,143.50
2018-04-13T01:09:42.659Z,151.50
2018-04-13T01:10:18.144Z,151.30
2018-04-13T01:10:53.462Z,147.70
2018-04-13T01:11:28.898Z,153.60
2018-04-13T01:12:04.528Z,154.80
2018-04-13T01:12:41.249Z,143.60
2018-04-13T01:13:16.621Z,147.80
2018-04-13T01:13:52.055Z,157.40
2018-04-13T01:14:27.665Z,142.00
2018-04-13T01:15:03.071Z,139.80
2018-04-13T01:15:38.485Z,148.80
2018-04-13T01:16:13.818Z,147.60
2018-04-13T01:16:49.380Z,158.10
2018-04-13T01:17:24.821Z,164.80
2018-04-13T01:18:00.097Z,159.50
2018-04-13T01:18:35.635Z,154.70
2018-04-13T01:19:10.752Z,149.30
2018-04-13T01:19:46.374Z,153.50
2018-04-13T01:20:21.765Z,150.80
2018-04-13T01:20:57.282Z,143.50
2018-04-13T01:21:32.492Z,144.20
2018-04-13T01:22:08.001Z,139.70
2018-04-13T01:22:43.436Z,144.30
2018-04-13T01:23:18.933Z,142.00
2018-04-13T01:23:54.344Z,143.70
2018-04-13T01:24:30.243Z,147.10
2018-04-13T01:25:05.968Z,142.80
2018-04-13T01:25:41.195Z,145.20
2018-04-13T01:26:16.605Z,143.20
2018-04-13T01:26:51.935Z,143.80
2018-04-13T01:27:27.305Z,139.80
2018-04-13T01:28:02.386Z,138.40
2018-04-13T01:28:37.720Z,140.90
2018-04-13T01:29:13.206Z,143.40
2018-04-13T01:29:48.620Z,141.10
2018-04-13T01:30:24.053Z,138.20
2018-04-13T01:30:59.757Z,143.00
2018-04-13T01:31:35.097Z,149.60
2018-04-13T01:32:10.712Z,151.60
2018-04-13T01:32:46.220Z,152.00
2018-04-13T01:33:21.544Z,148.50
2018-04-13T01:33:57.188Z,148.80
2018-04-13T01:34:32.696Z,148.20
2018-04-13T01:35:08.110Z,151.90
2018-04-13T01:35:43.251Z,152.80
2018-04-13T01:36:18.562Z,160.40
2018-04-13T01:36:53.874Z,152.50
2018-04-13T01:37:29.137Z,148.00
2018-04-13T01:38:04.444Z,148.80
2018-04-13T01:38:39.902Z,145.40
2018-04-13T01:39:15.502Z,145.60
2018-04-13T01:39:50.611Z,142.60
2018-04-13T01:40:25.941Z,138.40
2018-04-13T01:41:01.131Z,142.70
2018-04-13T01:41:36.356Z,149.90
2018-04-13T01:42:11.665Z,143.30
2018-04-13T01:42:46.918Z,141.40
2018-04-13T01:43:22.321Z,146.30
2018-04-13T01:43:57.575Z,147.30
2018-04-13T01:44:32.989Z,142.30
2018-04-13T01:45:08.118Z,134.90
2018-04-13T01:45:43.435Z,135.60
2018-04-13T01:46:18.452Z,134.40
2018-04-13T01:46:53.920Z,134.40
2018-04-13T01:47:29.198Z,141.80
2018-04-13T01:48:04.547Z,141.00
2018-04-13T01:48:40.260Z,138.20
2018-04-13T01:49:15.544Z,133.40
2018-04-13T01:49:51.173Z,131.80
2018-04-13T01:50:26.367Z,141.00
2018-04-13T01:51:01.884Z,153.00
2018-04-13T01:51:36.992Z,140.30
2018-04-13T01:52:12.842Z,138.40
2018-04-13T01:52:48.154Z,139.10
2018-04-13T01:53:23.457Z,132.30
2018-04-13T01:53:58.876Z,124.70
2018-04-13T01:54:34.088Z,127.10
2018-04-13T01:55:09.988Z,134.80
2018-04-13T01:55:45.409Z,142.20
2018-04-13T01:56:21.048Z,137.30
2018-04-13T01:56:56.370Z,136.70
2018-04-13T01:57:31.683Z,137.60
2018-04-13T01:58:07.624Z,132.10
2018-04-13T01:58:43.153Z,132.50
2018-04-13T01:59:18.638Z,136.70
2018-04-13T01:59:54.058Z,137.70
2018-04-13T02:00:29.650Z,146.30
2018-04-13T02:01:04.983Z,146.00
2018-04-13T02:01:41.092Z,146.20
2018-04-13T02:02:16.715Z,140.20
2018-04-13T02:02:52.130Z,134.70
2018-04-13T02:03:27.311Z,133.30
2018-04-13T02:04:02.747Z,139.90
2018-04-13T02:04:38.001Z,143.10
2018-04-13T02:05:13.133Z,150.10
2018-04-13T02:05:48.251Z,156.20
2018-04-13T02:06:23.693Z,147.40
2018-04-13T02:06:58.945Z,147.30
2018-04-13T02:07:35.663Z,145.50
2018-04-13T02:08:10.950Z,141.10
2018-04-13T02:08:46.348Z,138.30
2018-04-13T02:09:21.736Z,140.20
2018-04-13T02:09:57.253Z,147.00
2018-04-13T02:10:32.755Z,145.40
2018-04-13T02:11:08.427Z,142.10
2018-04-13T02:11:43.742Z,152.10
2018-04-13T02:12:19.051Z,146.80
2018-04-13T02:12:54.366Z,149.80
2018-04-13T02:13:29.655Z,148.50
2018-04-13T02:14:04.895Z,163.00
2018-04-13T02:14:40.321Z,153.80
2018-04-13T02:15:15.664Z,149.60
2018-04-13T02:15:51.072Z,158.30
2018-04-13T02:16:26.558Z,156.70
2018-04-13T02:17:01.936Z,155.40
2018-04-13T02:17:37.381Z,155.60
2018-04-13T02:18:13.167Z,160.50
2018-04-13T02:18:48.487Z,165.10
2018-04-13T02:19:23.757Z,167.20
2018-04-13T02:19:59.287Z,167.60
2018-04-13T02:20:34.834Z,164.70
2018-04-13T02:21:10.346Z,159.40
2018-04-13T02:21:45.473Z,164.90
2018-04-13T02:22:20.801Z,161.00
2018-04-13T02:22:55.920Z,157.80
2018-04-13T02:23:31.124Z,167.10
2018-04-13T02:24:06.358Z,156.80
2018-04-13T02:24:41.983Z,157.10
2018-04-13T02:25:17.179Z,161.60
2018-04-13T02:25:52.932Z,155.40
2018-04-13T02:26:28.326Z,133.40
2018-04-13T02:27:03.769Z,128.50
2018-04-13T02:27:39.107Z,136.70
2018-04-13T02:28:14.289Z,148.20
2018-04-13T02:28:49.531Z,162.80
2018-04-13T02:29:24.839Z,175.50
2018-04-13T02:30:00.093Z,161.90
2018-04-13T02:30:35.527Z,155.20
2018-04-13T02:31:10.635Z,154.20
2018-04-13T02:31:46.168Z,144.50
2018-04-13T02:32:21.884Z,133.20
2018-04-13T02:32:57.132Z,118.40
2018-04-13T02:33:32.533Z,128.30
2018-04-13T02:34:07.972Z,138.20
2018-04-13T02:34:43.466Z,135.30
2018-04-13T02:35:18.797Z,140.90
2018-04-13T02:35:54.244Z,148.10
2018-04-13T02:36:29.533Z,145.10
2018-04-13T02:37:04.799Z,154.10
2018-04-13T02:37:40.527Z,142.70
2018-04-13T02:38:15.833Z,141.80
2018-04-13T02:38:51.334Z,144.20
2018-04-13T02:39:26.953Z,148.10
2018-04-13T02:40:02.917Z,146.50
2018-04-13T02:40:39.049Z,155.70
2018-04-13T02:41:14.259Z,154.20
2018-04-13T02:41:49.670Z,150.80
2018-04-13T02:42:25.126Z,164.90
2018-04-13T02:43:00.450Z,155.80
2018-04-13T02:43:35.652Z,150.70
2018-04-13T02:44:11.192Z,164.70
2018-04-13T02:44:46.533Z,174.10
2018-04-13T02:45:21.831Z,172.30
2018-04-13T02:45:57.136Z,157.60
2018-04-13T02:46:32.533Z,152.90
2018-04-13T02:47:08.080Z,162.60
2018-04-13T02:47:43.368Z,157.20
2018-04-13T02:48:18.675Z,152.20
2018-04-13T02:48:54.027Z,155.40
2018-04-13T02:49:29.317Z,152.60
2018-04-13T02:50:04.847Z,162.40
2018-04-13T02:50:42.741Z,163.90
2018-04-13T02:51:18.263Z,168.00
2018-04-13T02:51:53.894Z,183.10
2018-04-13T02:52:29.184Z,180.80
2018-04-13T02:53:04.649Z,174.80
2018-04-13T02:53:40.203Z,172.70
2018-04-13T02:54:15.321Z,166.60
2018-04-13T02:54:50.647Z,169.00
2018-04-13T02:55:25.919Z,175.10
2018-04-13T02:56:01.256Z,167.10
2018-04-13T02:56:36.545Z,163.60
2018-04-13T02:57:11.822Z,171.50
2018-04-13T02:57:47.068Z,174.60
2018-04-13T02:58:22.584Z,177.20
2018-04-13T02:58:57.790Z,177.80
2018-04-13T02:59:33.100Z,174.90
2018-04-13T03:00:08.531Z,176.60
2018-04-13T03:00:47.763Z,174.50
2018-04-13T03:01:23.036Z,179.10
2018-04-13T03:01:58.879Z,174.80
2018-04-13T03:02:34.176Z,156.20
2018-04-13T03:03:09.914Z,160.90
2018-04-13T03:03:45.415Z,166.00
2018-04-13T03:04:20.628Z,163.20
2018-04-13T03:04:56.270Z,159.10
2018-04-13T03:05:31.459Z,155.30
2018-04-13T03:06:06.685Z,151.10
2018-04-13T03:06:41.792Z,159.20
2018-04-13T03:07:17.261Z,163.60
2018-04-13T03:07:53.089Z,168.90
2018-04-13T03:08:28.485Z,162.70
2018-04-13T03:09:03.813Z,151.90
2018-04-13T03:09:39.227Z,150.10
2018-04-13T03:10:14.460Z,154.50
2018-04-13T03:10:49.993Z,165.30
2018-04-13T03:11:25.485Z,165.20
2018-04-13T03:12:01.164Z,164.40
2018-04-13T03:12:37.259Z,152.30
2018-04-13T03:13:12.453Z,145.00
2018-04-13T03:13:47.826Z,152.10
2018-04-13T03:14:23.356Z,157.80
2018-04-13T03:14:58.670Z,163.30
2018-04-13T03:15:34.509Z,161.90
2018-04-13T03:16:09.715Z,161.80
2018-04-13T03:16:44.926Z,148.40
2018-04-13T03:17:20.521Z,147.00
2018-04-13T03:17:55.645Z,159.20
2018-04-13T03:18:31.023Z,155.30
2018-04-13T03:19:06.584Z,146.40
2018-04-13T03:19:41.911Z,145.60
2018-04-13T03:20:17.035Z,144.20
2018-04-13T03:20:52.455Z,145.90
2018-04-13T03:21:27.864Z,145.40
2018-04-13T03:22:03.734Z,152.00
2018-04-13T03:22:39.016Z,164.10
2018-04-13T03:23:14.457Z,166.60
2018-04-13T03:23:49.667Z,160.20
2018-04-13T03:24:25.182Z,146.30
2018-04-13T03:25:00.712Z,159.20
2018-04-13T03:25:35.904Z,176.20
2018-04-13T03:26:11.534Z,173.10
2018-04-13T03:26:47.165Z,161.50
2018-04-13T03:27:22.988Z,148.90
2018-04-13T03:27:58.609Z,149.40
2018-04-13T03:28:34.109Z,158.90
2018-04-13T03:29:09.412Z,159.00
2018-04-13T03:29:44.527Z,152.80
2018-04-13T03:30:20.127Z,153.40
2018-04-13T03:30:55.550Z,150.10
2018-04-13T03:31:31.056Z,155.10
2018-04-13T03:32:06.821Z,139.50
2018-04-13T03:32:42.107Z,144.00
2018-04-13T03:33:17.446Z,147.80
2018-04-13T03:33:52.808Z,148.10
2018-04-13T03:34:28.380Z,137.70
2018-04-13T03:35:03.475Z,131.60
2018-04-13T03:35:38.701Z,128.20
2018-04-13T03:36:14.160Z,138.60
2018-04-13T03:36:49.477Z,141.90
2018-04-13T03:37:24.830Z,147.40
2018-04-13T03:38:00.462Z,138.30
2018-04-13T03:38:35.758Z,138.70
2018-04-13T03:39:11.378Z,146.00
2018-04-13T03:39:46.518Z,145.30
2018-04-13T03:40:21.957Z,134.50
2018-04-13T03:40:57.278Z,133.40
2018-04-13T03:41:32.580Z,138.70
2018-04-13T03:42:08.024Z,130.90
2018-04-13T03:42:43.515Z,126.40
2018-04-13T03:43:18.625Z,128.70
2018-04-13T03:43:54.253Z,125.40
2018-04-13T03:44:29.787Z,129.80
2018-04-13T03:45:05.538Z,137.60
2018-04-13T03:45:40.814Z,137.80
2018-04-13T03:46:15.855Z,146.10
2018-04-13T03:46:51.246Z,152.90
2018-04-13T03:47:26.513Z,149.40
2018-04-13T03:48:01.782Z,147.50
2018-04-13T03:48:37.994Z,147.20
2018-04-13T03:49:13.519Z,145.50
2018-04-13T03:49:48.920Z,142.70
2018-04-13T03:50:24.376Z,140.50
2018-04-13T03:50:59.592Z,147.10
2018-04-13T03:51:34.766Z,156.50
2018-04-13T03:52:10.367Z,160.30
2018-04-13T03:52:45.559Z,167.00
2018-04-13T03:53:21.292Z,167.10
2018-04-13T03:53:56.961Z,169.70
2018-04-13T03:54:32.172Z,167.50
2018-04-13T03:55:07.572Z,163.00
2018-04-13T03:55:43.058Z,164.80
2018-04-13T03:56:18.375Z,166.10
2018-04-13T03:56:53.607Z,165.60
2018-04-13T03:57:29.055Z,158.50
2018-04-13T03:58:04.397Z,154.20
2018-04-13T03:58:40.086Z,155.40
2018-04-13T03:59:15.497Z,155.50
2018-04-13T03:59:50.673Z,159.60
2018-04-13T04:00:26.123Z,161.50
2018-04-13T04:01:02.260Z,159.10
2018-04-13T04:01:37.852Z,157.50
2018-04-13T04:02:13.446Z,168.60
2018-04-13T04:02:48.648Z,161.20
2018-04-13T04:03:24.262Z,155.40
2018-04-13T04:03:59.683Z,169.80
2018-04-13T04:04:35.061Z,172.90
2018-04-13T04:05:10.599Z,170.40
2018-04-13T04:05:45.725Z,171.70
2018-04-13T04:06:21.570Z,168.70
2018-04-13T04:06:57.204Z,154.20
2018-04-13T04:07:32.535Z,149.30
2018-04-13T04:08:08.290Z,157.60
2018-04-13T04:08:43.692Z,149.50
2018-04-13T04:09:19.046Z,156.50
2018-04-13T04:09:55.766Z,164.50
2018-04-13T04:10:31.068Z,159.40
2018-04-13T04:11:06.283Z,145.80
2018-04-13T04:11:41.598Z,144.30
2018-04-13T04:12:16.942Z,148.20
2018-04-13T04:12:52.238Z,148.00
2018-04-13T04:13:27.559Z,149.30
2018-04-13T04:14:03.178Z,149.10
2018-04-13T04:14:39.143Z,132.80
2018-04-13T04:15:14.664Z,131.00
2018-04-13T04:15:49.882Z,133.20
2018-04-13T04:16:25.637Z,125.50
2018-04-13T04:17:01.403Z,130.30
2018-04-13T04:17:36.924Z,130.70
2018-04-13T04:18:12.138Z,132.10
2018-04-13T04:18:47.569Z,132.90
2018-04-13T04:19:22.876Z,133.90
2018-04-13T04:19:57.877Z,137.10
2018-04-13T04:20:33.615Z,135.40
2018-04-13T04:21:08.921Z,133.60
2018-04-13T04:21:44.324Z,130.20
2018-04-13T04:22:19.622Z,129.50
2018-04-13T04:22:55.021Z,139.50
2018-04-13T04:23:30.363Z,144.90
2018-04-13T04:24:05.928Z,140.30
2018-04-13T04:24:41.698Z,141.00
2018-04-13T04:25:16.849Z,146.20
2018-04-13T04:25:52.457Z,147.90
2018-04-13T04:26:27.814Z,150.20
2018-04-13T04:27:03.529Z,148.70
2018-04-13T04:27:39.041Z,158.50
2018-04-13T04:28:14.662Z,152.70
2018-04-13T04:28:49.779Z,155.90
2018-04-13T04:29:25.127Z,155.80
2018-04-13T04:30:00.503Z,157.00
2018-04-13T04:30:35.933Z,161.10
2018-04-13T04:31:10.905Z,167.20
2018-04-13T04:31:46.213Z,167.70
2018-04-13T04:32:21.575Z,153.00
2018-04-13T04:32:57.188Z,146.20
2018-04-13T04:33:32.702Z,152.00
2018-04-13T04:34:07.929Z,161.30
2018-04-13T04:34:43.613Z,170.70
2018-04-13T04:35:18.990Z,177.60
2018-04-13T04:35:54.226Z,182.80
2018-04-13T04:36:29.942Z,178.10
2018-04-13T04:37:05.375Z,177.50
2018-04-13T04:37:41.004Z,174.90
2018-04-13T04:38:16.447Z,171.90
2018-04-13T04:38:51.910Z,179.20
2018-04-13T04:39:27.853Z,186.00
2018-04-13T04:40:03.523Z,187.40
2018-04-13T04:40:39.550Z,184.30
2018-04-13T04:41:14.754Z,195.80
2018-04-13T04:41:49.856Z,206.10
2018-04-13T04:42:25.229Z,199.00
2018-04-13T04:43:00.539Z,197.60
2018-04-13T04:43:35.875Z,188.60
2018-04-13T04:44:11.484Z,194.30
2018-04-13T04:44:46.812Z,200.30
2018-04-13T04:45:21.930Z,206.50
2018-04-13T04:45:57.574Z,202.10
2018-04-13T04:46:32.860Z,198.70
2018-04-13T04:47:07.899Z,202.90
2018-04-13T04:47:43.369Z,199.00
2018-04-13T04:48:18.588Z,189.80
2018-04-13T04:48:54.106Z,200.00
2018-04-13T04:49:29.449Z,196.40
2018-04-13T04:50:05.200Z,195.50
2018-04-13T04:50:40.615Z,197.60
2018-04-13T04:51:16.052Z,201.30
2018-04-13T04:51:51.605Z,210.50
2018-04-13T04:52:26.952Z,214.50
2018-04-13T04:53:02.084Z,205.00
2018-04-13T04:53:37.694Z,202.30
2018-04-13T04:54:12.795Z,203.30
2018-04-13T04:54:48.529Z,206.50
2018-04-13T04:55:23.754Z,206.30
2018-04-13T04:55:59.159Z,207.30
2018-04-13T04:56:34.982Z,206.80
2018-04-13T04:57:10.423Z,209.20
2018-04-13T04:57:46.286Z,205.70
2018-04-13T04:58:21.704Z,212.20
2018-04-13T04:58:57.211Z,214.80
2018-04-13T04:59:32.651Z,213.40
2018-04-13T05:00:07.832Z,206.00
2018-04-13T05:00:43.779Z,208.90
2018-04-13T05:01:19.201Z,202.40
2018-04-13T05:01:54.736Z,195.50
2018-04-13T05:02:29.992Z,204.20
2018-04-13T05:03:05.505Z,205.40
2018-04-13T05:03:40.753Z,197.50
2018-04-13T05:04:16.396Z,194.20
2018-04-13T05:04:51.965Z,189.80
2018-04-13T05:05:27.396Z,201.10
2018-04-13T05:06:02.991Z,202.20
2018-04-13T05:06:38.631Z,188.80
2018-04-13T05:07:14.500Z,187.50
2018-04-13T05:07:49.924Z,198.90
2018-04-13T05:08:25.255Z,188.30
2018-04-13T05:09:00.570Z,182.90
2018-04-13T05:09:36.038Z,190.20
2018-04-13T05:10:11.202Z,179.20
2018-04-13T05:10:46.734Z,176.90
2018-04-13T05:11:22.122Z,196.80
2018-04-13T05:11:57.445Z,210.20
2018-04-13T05:12:32.793Z,202.30
2018-04-13T05:13:08.221Z,208.80
2018-04-13T05:13:43.328Z,201.60
2018-04-13T05:14:18.999Z,190.80
2018-04-13T05:14:54.489Z,192.90
2018-04-13T05:15:30.119Z,196.70
2018-04-13T05:16:05.915Z,198.70
2018-04-13T05:16:41.445Z,196.60
2018-04-13T05:17:16.876Z,187.50
2018-04-13T05:17:52.475Z,192.50
2018-04-13T05:18:27.621Z,207.00
2018-04-13T05:19:02.931Z,198.00
2018-04-13T05:19:38.406Z,196.90
2018-04-13T05:20:13.828Z,193.30
2018-04-13T05:20:51.953Z,191.50
2018-04-13T05:21:27.220Z,191.50
2018-04-13T05:22:02.589Z,182.80
2018-04-13T05:22:37.809Z,191.30
2018-04-13T05:23:13.079Z,183.60
2018-04-13T05:23:48.445Z,182.90
2018-04-13T05:24:23.981Z,180.50
2018-04-13T05:24:59.323Z,181.40
2018-04-13T05:25:35.104Z,190.00
2018-04-13T05:26:10.664Z,183.70
2018-04-13T05:26:46.512Z,183.20
2018-04-13T05:27:21.814Z,183.00
2018-04-13T05:27:57.313Z,176.70
2018-04-13T05:28:32.627Z,172.90
2018-04-13T05:29:08.123Z,177.30
2018-04-13T05:29:43.459Z,179.40
2018-04-13T05:30:19.205Z,168.00
2018-04-13T05:30:55.638Z,172.50
2018-04-13T05:31:31.478Z,178.50
2018-04-13T05:32:06.773Z,179.40
2018-04-13T05:32:42.542Z,186.10
2018-04-13T05:33:17.937Z,188.40
2018-04-13T05:33:53.051Z,194.00
2018-04-13T05:34:28.807Z,186.40
2018-04-13T05:35:03.789Z,190.60
2018-04-13T05:35:39.521Z,184.20
2018-04-13T05:36:14.869Z,182.30
2018-04-13T05:36:50.259Z,186.20
2018-04-13T05:37:25.702Z,190.30
2018-04-13T05:38:00.881Z,201.70
2018-04-13T05:38:36.342Z,196.40
2018-04-13T05:39:11.662Z,196.80
2018-04-13T05:39:46.888Z,191.40
2018-04-13T05:40:22.426Z,199.50
2018-04-13T05:40:57.831Z,189.10
2018-04-13T05:41:33.258Z,186.90
2018-04-13T05:42:09.086Z,186.80
2018-04-13T05:42:44.735Z,188.30
2018-04-13T05:43:19.949Z,184.80
2018-04-13T05:43:55.475Z,179.70
2018-04-13T05:44:30.921Z,181.70
2018-04-13T05:45:06.125Z,193.50
2018-04-13T05:45:42.186Z,188.80
2018-04-13T05:46:17.988Z,185.40
2018-04-13T05:46:53.393Z,188.90
2018-04-13T05:47:28.774Z,182.10
2018-04-13T05:48:03.886Z,177.10
2018-04-13T05:48:39.351Z,177.00
2018-04-13T05:49:14.815Z,187.40
2018-04-13T05:49:50.124Z,186.70
2018-04-13T05:50:25.169Z,182.90
2018-04-13T05:51:00.758Z,192.60
2018-04-13T05:51:38.130Z,195.60
2018-04-13T05:52:13.456Z,182.10
2018-04-13T05:52:48.771Z,179.60
2018-04-13T05:53:24.198Z,192.20
2018-04-13T05:53:59.707Z,183.20
2018-04-13T05:54:35.160Z,184.20
2018-04-13T05:55:10.544Z,190.80
2018-04-13T05:55:45.781Z,183.10
2018-04-13T05:56:21.228Z,182.00
2018-04-13T05:56:56.643Z,182.70
2018-04-13T05:57:31.960Z,179.40
2018-04-13T05:58:07.184Z,179.00
2018-04-13T05:58:42.696Z,176.90
2018-04-13T05:59:18.064Z,171.30
2018-04-13T05:59:53.493Z,170.40
2018-04-13T06:00:28.723Z,169.80
2018-04-13T06:01:04.540Z,160.00
2018-04-13T06:01:39.762Z,164.50
2018-04-13T06:02:15.232Z,165.00
2018-04-13T06:02:50.897Z,166.40
2018-04-13T06:03:26.241Z,167.60
2018-04-13T06:04:01.488Z,172.70
2018-04-13T06:04:37.119Z,175.40
2018-04-13T06:07:13.467Z,173.80
2018-04-13T06:07:51.664Z,162.00
2018-04-13T06:08:26.977Z,159.80
2018-04-13T06:09:02.247Z,165.40
2018-04-13T06:09:38.195Z,170.30
2018-04-13T06:10:13.723Z,172.80
2018-04-13T06:10:51.252Z,176.30
2018-04-13T06:11:26.769Z,168.30
2018-04-13T06:12:01.969Z,160.60
2018-04-13T06:12:37.489Z,170.30
2018-04-13T06:13:12.666Z,156.50
2018-04-13T06:13:47.978Z,156.20
2018-04-13T06:14:23.556Z,167.30
2018-04-13T06:14:58.951Z,169.60
2018-04-13T06:15:34.301Z,172.40
2018-04-13T06:16:09.685Z,172.10
2018-04-13T06:16:45.040Z,171.80
2018-04-13T06:17:20.335Z,166.90
2018-04-13T06:17:56.183Z,158.20
2018-04-13T06:18:31.580Z,155.70
2018-04-13T06:19:06.960Z,157.80
2018-04-13T06:19:42.460Z,155.50
2018-04-13T06:20:18.040Z,159.80
2018-04-13T06:20:53.525Z,156.40
2018-04-13T06:21:29.029Z,152.50
2018-04-13T06:22:04.578Z,151.20
2018-04-13T06:22:41.724Z,150.50
2018-04-13T06:23:17.048Z,157.70
2018-04-13T06:23:52.605Z,154.20
2018-04-13T06:24:27.966Z,159.10
2018-04-13T06:25:03.229Z,168.30
2018-04-13T06:25:42.190Z,163.60
2018-04-13T06:26:19.612Z,155.20
2018-04-13T06:26:55.099Z,152.40
2018-04-13T06:27:30.446Z,157.30
2018-04-13T06:28:05.757Z,169.30
2018-04-13T06:28:41.277Z,158.10
2018-04-13T06:29:16.573Z,153.60
2018-04-13T06:29:51.894Z,160.80
2018-04-13T06:30:27.035Z,152.70
2018-04-13T06:31:02.288Z,147.90
2018-04-13T06:31:38.103Z,153.50
2018-04-13T06:32:13.522Z,155.10
2018-04-13T06:32:48.858Z,153.50
2018-04-13T06:33:24.187Z,152.40
2018-04-13T06:33:59.485Z,145.50
2018-04-13T06:34:37.838Z,155.90
2018-04-13T06:35:13.265Z,154.00
2018-04-13T06:35:48.896Z,149.60
2018-04-13T06:36:24.439Z,142.80
2018-04-13T06:36:59.869Z,145.20
2018-04-13T06:37:35.811Z,154.50
2018-04-13T06:38:11.278Z,157.20
2018-04-13T06:38:46.608Z,144.60
2018-04-13T06:39:22.161Z,147.10
2018-04-13T06:39:57.527Z,144.90
2018-04-13T06:40:33.491Z,146.00
2018-04-13T06:41:08.710Z,149.70
2018-04-13T06:41:43.965Z,150.40
2018-04-13T06:42:19.181Z,144.10
2018-04-13T06:42:55.513Z,139.90
2018-04-13T06:43:31.017Z,147.80
2018-04-13T06:44:06.511Z,158.40
2018-04-13T06:44:41.847Z,141.70
2018-04-13T06:45:18.538Z,134.30
2018-04-13T06:45:53.986Z,146.40
2018-04-13T06:46:29.427Z,140.20
2018-04-13T06:47:05.113Z,144.90
2018-04-13T06:47:40.570Z,152.70
2018-04-13T06:48:15.939Z,139.10
2018-04-13T06:48:51.573Z,141.10
2018-04-13T06:49:26.857Z,145.20
2018-04-13T06:50:02.359Z,140.00
2018-04-13T06:50:39.380Z,140.00
2018-04-13T06:51:14.598Z,139.20
2018-04-13T06:51:50.031Z,143.90
2018-04-13T06:52:25.722Z,149.60
2018-04-13T06:53:01.106Z,141.10
2018-04-13T06:53:36.430Z,140.30
2018-04-13T06:54:11.828Z,148.50
2018-04-13T06:54:47.388Z,150.50
2018-04-13T06:55:22.907Z,147.90
2018-04-13T06:55:59.543Z,151.80
2018-04-13T06:56:35.770Z,145.10
2018-04-13T06:57:11.606Z,145.90
2018-04-13T06:57:46.832Z,148.70
2018-04-13T06:58:22.130Z,145.10
2018-04-13T06:58:59.457Z,151.00
2018-04-13T06:59:35.088Z,146.20
2018-04-13T07:00:10.896Z,151.00
2018-04-13T07:00:47.432Z,145.30
2018-04-13T07:01:22.971Z,140.80
2018-04-13T07:01:58.489Z,139.40
2018-04-13T07:02:34.172Z,140.00
2018-04-13T07:03:09.571Z,146.90
2018-04-13T07:03:45.216Z,152.10
2018-04-13T07:04:20.760Z,144.90
2018-04-13T07:04:56.103Z,142.30
2018-04-13T07:05:31.330Z,145.00
2018-04-13T07:06:06.751Z,139.70
2018-04-13T07:06:45.772Z,136.40
2018-04-13T07:07:21.349Z,137.00
2018-04-13T07:07:56.756Z,133.90
2018-04-13T07:08:32.285Z,141.00
2018-04-13T07:09:07.570Z,137.50
2018-04-13T07:09:42.943Z,135.40
2018-04-13T07:10:18.456Z,132.30
2018-04-13T07:10:56.305Z,133.70
2018-04-13T07:11:31.878Z,134.30
2018-04-13T07:12:07.413Z,149.50
2018-04-13T07:12:42.847Z,143.60
2018-04-13T07:13:18.172Z,137.00
2018-04-13T07:13:53.585Z,136.70
2018-04-13T07:14:28.898Z,133.00
2018-04-13T07:15:04.533Z,131.20
2018-04-13T07:15:40.905Z,130.90
2018-04-13T07:16:16.094Z,135.00
2018-04-13T07:16:51.322Z,130.30
2018-04-13T07:17:28.890Z,130.10
2018-04-13T07:18:04.616Z,131.10
2018-04-13T07:18:40.147Z,131.10
2018-04-13T07:19:15.672Z,126.20
2018-04-13T07:19:51.205Z,118.10
2018-04-13T07:20:26.615Z,124.80
2018-04-13T07:21:02.237Z,116.40
2018-04-13T07:21:37.786Z,116.40
2018-04-13T07:22:12.914Z,120.20
2018-04-13T07:22:48.160Z,118.60
2018-04-13T07:23:23.435Z,120.50
2018-04-13T07:23:58.847Z,117.70
2018-04-13T07:24:34.389Z,111.00
2018-04-13T07:25:10.585Z,113.60